Time;durP1;ratioP1;P1;durP2;ratioP2;P2;SDS_P1;SDS_P2;PMS_P1;PMS_P2;Temp;Humidity;BMP_temperature;BMP_pressure;BME280_temperature;BME280_humidity;BME280_pressure;Samples;Min_cycle;Max_cycle;Signal;HPM_P1;HPM_P2
2022/07/21 00:00:38;;;;;;;15.68;9.18;;;20.30;99.90;;;;;;6156661;23;20026;-87
2022/07/21 00:03:04;;;;;;;17.67;9.75;;;20.30;99.90;;;;;;6130748;23;20028;-87
2022/07/21 00:05:29;;;;;;;19.67;9.68;;;20.30;99.90;;;;;;6129702;23;20024;-86
2022/07/21 00:07:55;;;;;;;23.40;10.10;;;20.30;99.90;;;;;;6156849;23;20025;-86
2022/07/21 00:10:23;;;;;;;18.15;9.98;;;20.20;99.90;;;;;;6156391;23;20018;-86
2022/07/21 00:12:49;;;;;;;20.85;10.48;;;20.10;99.90;;;;;;6156846;23;20017;-86
2022/07/21 00:15:17;;;;;;;18.60;9.10;;;20.10;99.90;;;;;;6130362;23;20041;-86
2022/07/21 00:17:43;;;;;;;18.15;8.75;;;20.50;99.90;;;;;;6155242;23;20017;-85
2022/07/21 00:20:10;;;;;;;19.38;9.95;;;20.00;99.90;;;;;;6156582;23;20009;-85
2022/07/21 00:22:36;;;;;;;16.58;9.60;;;19.90;99.90;;;;;;6156922;23;20013;-85
2022/07/21 00:25:05;;;;;;;18.77;9.77;;;19.90;99.90;;;;;;6129018;23;20294;-85
2022/07/21 00:27:30;;;;;;;18.55;9.95;;;19.70;99.90;;;;;;6130356;23;20092;-85
2022/07/21 00:29:56;;;;;;;19.50;10.82;;;19.70;99.90;;;;;;6129974;23;20053;-84
2022/07/21 00:32:22;;;;;;;19.63;9.82;;;19.70;99.90;;;;;;6129397;23;20319;-85
2022/07/21 00:34:47;;;;;;;17.77;9.65;;;19.60;99.90;;;;;;6129589;23;20311;-84
2022/07/21 00:37:13;;;;;;;19.73;10.43;;;19.50;99.90;;;;;;6156373;23;20088;-84
2022/07/21 00:39:39;;;;;;;18.42;9.82;;;19.50;99.90;;;;;;6129376;23;20059;-84
2022/07/21 00:42:07;;;;;;;19.92;9.75;;;19.80;99.90;;;;;;6129935;23;20401;-84
2022/07/21 00:44:33;;;;;;;18.20;10.02;;;19.40;99.90;;;;;;6130152;23;20434;-84
2022/07/21 00:46:59;;;;;;;20.10;10.02;;;19.50;99.90;;;;;;6128646;23;20100;-84
2022/07/21 00:49:24;;;;;;;21.02;10.65;;;19.30;99.90;;;;;;6156498;23;20023;-84
2022/07/21 00:51:51;;;;;;;20.98;10.77;;;19.30;99.90;;;;;;6129829;23;20108;-83
2022/07/21 00:54:18;;;;;;;23.15;11.40;;;19.30;99.90;;;;;;6128906;23;20476;-83
2022/07/21 00:56:45;;;;;;;25.80;11.57;;;19.30;99.90;;;;;;6129586;23;20461;-83
2022/07/21 00:59:11;;;;;;;23.77;11.88;;;19.30;99.90;;;;;;6156514;23;20043;-83
2022/07/21 01:01:37;;;;;;;24.02;11.95;;;19.30;99.90;;;;;;6128760;23;20052;-84
2022/07/21 01:04:02;;;;;;;19.90;11.85;;;19.60;99.90;;;;;;6156803;23;20021;-83
2022/07/21 01:06:28;;;;;;;20.40;11.32;;;19.30;99.90;;;;;;6167292;23;20017;-84
2022/07/21 01:08:54;;;;;;;26.17;12.77;;;19.30;99.90;;;;;;6156891;23;20333;-85
2022/07/21 01:11:23;;;;;;;24.20;12.57;;;19.20;99.90;;;;;;6156511;23;20076;-83
2022/07/21 01:13:49;;;;;;;28.15;13.23;;;19.30;99.90;;;;;;6154422;23;20409;-83
2022/07/21 01:16:15;;;;;;;31.92;13.50;;;19.50;99.90;;;;;;6129525;23;20022;-83
2022/07/21 01:18:40;;;;;;;25.38;13.30;;;19.30;99.90;;;;;;6155989;23;20025;-83
2022/07/21 01:21:32;;;;;;;30.25;13.63;;;19.30;99.90;;;;;;6154371;23;20021;-83
2022/07/21 01:23:59;;;;;;;27.48;13.68;;;19.30;99.90;;;;;;6155717;23;20014;-84
2022/07/21 01:26:25;;;;;;;29.83;13.98;;;19.20;99.90;;;;;;6156312;23;20017;-84
2022/07/21 01:28:51;;;;;;;27.52;13.93;;;19.20;99.90;;;;;;6128507;23;20020;-86
2022/07/21 01:31:16;;;;;;;27.50;13.80;;;19.20;99.90;;;;;;6155584;23;20025;-86
2022/07/21 01:33:42;;;;;;;24.77;13.35;;;19.20;99.90;;;;;;6130143;23;20021;-86
2022/07/21 01:36:08;;;;;;;25.42;14.18;;;19.40;99.90;;;;;;6128783;23;20010;-85
2022/07/21 01:41:33;;;;;;;27.60;14.50;;;19.30;99.90;;;;;;6129599;23;20023;-85
2022/07/21 01:44:04;;;;;;;24.92;13.77;;;19.10;99.90;;;;;;6134045;23;20341;-84
2022/07/21 01:46:32;;;;;;;24.45;14.93;;;19.50;99.90;;;;;;6129395;23;20101;-85
2022/07/21 01:48:58;;;;;;;29.98;14.95;;;19.50;99.90;;;;;;6128341;23;20096;-85
2022/07/21 01:51:24;;;;;;;25.45;14.30;;;19.10;99.90;;;;;;6129445;23;20030;-85
2022/07/21 01:53:50;;;;;;;23.65;13.90;;;19.10;99.90;;;;;;6132667;23;20100;-84
2022/07/21 01:56:20;;;;;;;26.45;14.48;;;19.00;99.90;;;;;;6128689;23;20010;-85
2022/07/21 01:58:47;;;;;;;25.08;14.18;;;18.90;99.90;;;;;;6128587;23;20061;-84
2022/07/21 02:01:14;;;;;;;29.75;14.85;;;18.80;99.90;;;;;;6129049;23;20074;-84
2022/07/21 02:03:39;;;;;;;24.23;13.82;;;18.70;99.90;;;;;;6154958;23;20040;-84
2022/07/21 02:06:09;;;;;;;23.65;13.20;;;18.90;99.90;;;;;;6128293;23;20446;-84
2022/07/21 02:08:34;;;;;;;25.92;13.43;;;18.70;99.90;;;;;;6155731;23;20311;-84
2022/07/21 02:11:00;;;;;;;25.17;14.30;;;18.60;99.90;;;;;;6128207;23;20109;-84
2022/07/21 02:13:26;;;;;;;26.42;13.95;;;18.70;99.90;;;;;;6129516;23;20017;-84
2022/07/21 02:15:51;;;;;;;26.23;15.07;;;18.60;99.90;;;;;;6155249;23;20321;-84
2022/07/21 02:18:18;;;;;;;24.77;14.73;;;18.70;99.90;;;;;;6128319;23;20422;-84
2022/07/21 02:20:44;;;;;;;31.35;15.40;;;18.70;99.90;;;;;;6128854;23;20049;-84
2022/07/21 02:23:11;;;;;;;29.58;14.75;;;18.60;99.90;;;;;;6155421;23;20446;-84
2022/07/21 02:25:37;;;;;;;26.02;12.48;;;18.60;99.90;;;;;;6128108;23;20016;-84
2022/07/21 02:28:04;;;;;;;33.80;15.80;;;19.30;99.90;;;;;;6128695;23;20490;-85
2022/07/21 02:30:30;;;;;;;30.92;16.67;;;18.70;99.90;;;;;;6116418;23;20053;-85
2022/07/21 02:32:56;;;;;;;33.80;16.20;;;18.60;99.90;;;;;;6154395;23;20028;-85
2022/07/21 02:35:21;;;;;;;33.72;16.83;;;18.70;99.90;;;;;;6128891;23;20507;-85
2022/07/21 02:37:47;;;;;;;30.00;16.92;;;18.60;99.90;;;;;;6146219;23;20066;-85
2022/07/21 02:40:12;;;;;;;27.50;15.60;;;18.70;99.90;;;;;;6125486;23;20080;-86
2022/07/21 02:42:39;;;;;;;29.35;15.73;;;18.70;99.90;;;;;;6109342;23;20033;-85
2022/07/21 02:45:07;;;;;;;29.95;16.38;;;18.70;99.90;;;;;;6102594;23;20427;-86
2022/07/21 02:47:46;;;;;;;30.67;16.00;;;18.60;99.90;;;;;;6126147;23;20018;-86
2022/07/21 02:50:12;;;;;;;37.88;17.63;;;19.20;99.90;;;;;;6125763;23;20442;-86
2022/07/21 02:52:37;;;;;;;31.73;15.82;;;18.70;99.90;;;;;;6125386;23;20018;-86
2022/07/21 02:55:03;;;;;;;34.22;16.05;;;18.70;99.90;;;;;;6099565;23;20026;-86
2022/07/21 02:57:29;;;;;;;31.13;16.42;;;18.70;99.90;;;;;;6131838;23;20049;-85
2022/07/21 02:59:54;;;;;;;30.40;16.45;;;18.80;99.90;;;;;;6144840;23;20005;-85
2022/07/21 03:02:20;;;;;;;25.70;15.13;;;18.70;99.90;;;;;;6132370;23;20372;-86
2022/07/21 03:04:45;;;;;;;30.58;16.27;;;18.60;99.90;;;;;;6102770;23;20096;-85
2022/07/21 03:07:11;;;;;;;30.98;16.95;;;18.50;99.90;;;;;;6099627;23;20022;-85
2022/07/21 03:09:36;;;;;;;33.10;16.35;;;18.60;99.90;;;;;;6125990;23;20068;-85
2022/07/21 03:12:02;;;;;;;29.70;15.40;;;18.50;99.90;;;;;;6099326;23;20024;-85
2022/07/21 03:14:28;;;;;;;26.10;13.90;;;18.50;99.90;;;;;;6098810;23;20090;-85
2022/07/21 03:16:53;;;;;;;29.20;14.43;;;18.50;99.90;;;;;;6125528;23;20085;-85
2022/07/21 03:19:19;;;;;;;27.10;13.63;;;18.60;99.90;;;;;;6099598;23;20017;-85
2022/07/21 03:21:44;;;;;;;23.58;12.80;;;18.50;99.90;;;;;;6098944;23;20018;-85
2022/07/21 03:24:10;;;;;;;21.73;13.07;;;19.00;99.90;;;;;;6125479;23;20014;-85
2022/07/21 03:26:38;;;;;;;28.65;16.00;;;18.50;99.90;;;;;;6126048;23;20023;-85
2022/07/21 03:29:04;;;;;;;28.98;15.02;;;18.50;99.90;;;;;;6098607;23;20022;-85
2022/07/21 03:31:30;;;;;;;27.50;14.75;;;18.60;99.90;;;;;;6125891;23;20014;-85
2022/07/21 03:33:55;;;;;;;27.48;15.30;;;18.60;99.90;;;;;;6125451;23;20335;-85
2022/07/21 03:36:22;;;;;;;29.48;14.65;;;18.60;99.90;;;;;;6124987;23;20073;-85
2022/07/21 03:38:49;;;;;;;33.53;15.40;;;18.50;99.90;;;;;;6118182;23;20025;-85
2022/07/21 03:41:15;;;;;;;28.30;14.32;;;18.60;99.90;;;;;;6154318;23;20504;-85
2022/07/21 03:43:40;;;;;;;35.25;15.43;;;18.50;99.90;;;;;;6129164;23;20096;-85
2022/07/21 03:46:06;;;;;;;28.67;15.20;;;18.60;99.90;;;;;;6131878;23;20082;-85
2022/07/21 03:48:32;;;;;;;28.90;15.93;;;18.80;99.90;;;;;;6128482;23;20077;-85
2022/07/21 03:50:57;;;;;;;31.35;17.30;;;18.70;99.90;;;;;;6155152;23;20017;-85
2022/07/21 03:53:23;;;;;;;32.42;17.45;;;18.60;99.90;;;;;;6155383;23;20496;-85
2022/07/21 03:55:48;;;;;;;34.47;19.05;;;18.60;99.90;;;;;;6131958;23;20100;-84
2022/07/21 03:58:14;;;;;;;38.17;20.15;;;18.60;99.90;;;;;;6132142;23;20499;-85
2022/07/21 04:00:42;;;;;;;33.78;19.63;;;18.60;99.90;;;;;;6129922;23;20013;-85
2022/07/21 04:03:08;;;;;;;35.90;20.27;;;18.70;99.90;;;;;;6129483;23;20021;-85
2022/07/21 04:05:35;;;;;;;34.42;20.67;;;18.60;99.90;;;;;;6156215;23;20093;-85
2022/07/21 04:08:01;;;;;;;41.20;21.95;;;18.70;99.90;;;;;;6129524;23;20329;-85
2022/07/21 04:10:30;;;;;;;37.80;21.23;;;18.70;99.90;;;;;;6129692;23;20022;-85
2022/07/21 04:12:58;;;;;;;39.03;22.52;;;18.60;99.90;;;;;;6156648;23;20061;-85
2022/07/21 04:15:23;;;;;;;37.80;21.70;;;18.70;99.90;;;;;;6156447;23;20497;-85
2022/07/21 04:17:50;;;;;;;38.25;21.13;;;18.60;99.90;;;;;;6128916;23;20051;-85
2022/07/21 04:20:16;;;;;;;37.97;21.92;;;18.60;99.90;;;;;;6168344;23;20013;-85
2022/07/21 04:22:44;;;;;;;41.05;21.70;;;18.70;99.90;;;;;;6156966;23;20105;-85
2022/07/21 04:25:10;;;;;;;37.22;22.88;;;18.60;99.90;;;;;;6129673;23;20017;-85
2022/07/21 04:27:37;;;;;;;39.05;23.77;;;18.70;99.90;;;;;;6156696;23;20097;-85
2022/07/21 04:30:05;;;;;;;35.58;22.73;;;18.70;99.90;;;;;;6129835;23;20408;-85
2022/07/21 04:32:31;;;;;;;36.35;21.73;;;18.70;99.90;;;;;;6129389;23;20025;-85
2022/07/21 04:34:56;;;;;;;32.05;20.48;;;18.60;99.90;;;;;;6129473;23;20024;-85
2022/07/21 04:37:22;;;;;;;34.72;20.13;;;18.70;99.90;;;;;;6127612;23;20031;-84
2022/07/21 04:39:48;;;;;;;27.08;17.85;;;18.50;99.90;;;;;;6099509;23;20022;-85
2022/07/21 04:42:14;;;;;;;27.95;18.17;;;18.90;99.90;;;;;;6100901;23;20021;-85
2022/07/21 04:44:40;;;;;;;26.65;16.90;;;18.50;99.90;;;;;;6126118;23;20075;-85
2022/07/21 04:47:05;;;;;;;28.52;17.95;;;18.40;99.90;;;;;;6126925;23;20308;-84
2022/07/21 04:49:31;;;;;;;28.90;16.52;;;18.50;99.90;;;;;;6101440;23;20022;-85
2022/07/21 04:51:56;;;;;;;25.35;17.15;;;18.50;99.90;;;;;;6126675;23;20089;-85
2022/07/21 04:54:22;;;;;;;29.02;17.65;;;18.50;99.90;;;;;;6103660;23;20018;-85
2022/07/21 04:56:48;;;;;;;27.52;17.70;;;18.80;99.90;;;;;;6129214;23;20081;-84
2022/07/21 04:59:13;;;;;;;30.25;17.73;;;18.70;99.90;;;;;;6126769;23;20017;-85
2022/07/21 05:01:39;;;;;;;27.80;17.75;;;18.60;99.90;;;;;;6128063;23;20097;-85
2022/07/21 05:04:06;;;;;;;27.60;17.27;;;19.00;99.90;;;;;;6100418;23;20093;-85
2022/07/21 05:06:32;;;;;;;28.50;17.70;;;18.50;99.90;;;;;;6099741;23;20038;-85
2022/07/21 05:08:57;;;;;;;28.92;19.23;;;18.50;99.90;;;;;;6100223;23;20014;-84
2022/07/21 05:11:23;;;;;;;30.77;18.17;;;18.50;99.90;;;;;;6100296;23;20099;-80
2022/07/21 05:13:49;;;;;;;30.33;19.33;;;18.50;99.90;;;;;;6098826;23;20018;-79
2022/07/21 05:16:14;;;;;;;28.30;19.17;;;18.60;99.90;;;;;;6100125;23;20056;-79
2022/07/21 05:18:40;;;;;;;30.45;19.48;;;18.60;99.90;;;;;;6100152;23;20018;-79
2022/07/21 05:21:06;;;;;;;28.23;18.65;;;19.10;99.90;;;;;;6098838;23;20441;-79
2022/07/21 05:23:32;;;;;;;32.67;19.92;;;18.70;99.90;;;;;;6100281;23;20097;-79
2022/07/21 05:25:57;;;;;;;30.42;19.80;;;18.80;99.90;;;;;;6099947;23;20088;-81
2022/07/21 05:28:23;;;;;;;31.48;19.60;;;18.70;99.90;;;;;;6125901;23;20073;-80
2022/07/21 05:30:49;;;;;;;32.13;19.77;;;18.80;99.90;;;;;;6099787;23;20076;-81
2022/07/21 05:33:21;;;;;;;30.48;19.92;;;18.80;99.90;;;;;;6100163;23;20014;-79
2022/07/21 05:35:49;;;;;;;28.88;19.55;;;18.50;99.90;;;;;;6099030;23;20021;-79
2022/07/21 05:38:15;;;;;;;28.48;18.40;;;18.80;99.90;;;;;;6125660;23;20025;-79
2022/07/21 05:40:40;;;;;;;27.05;17.83;;;19.10;99.90;;;;;;6126168;23;20076;-79
2022/07/21 05:43:06;;;;;;;28.92;17.70;;;19.00;99.90;;;;;;6098357;23;20415;-78
2022/07/21 05:45:31;;;;;;;29.80;18.85;;;19.00;99.90;;;;;;6125832;23;20026;-79
2022/07/21 05:47:57;;;;;;;27.00;17.52;;;19.10;99.90;;;;;;6098785;23;20021;-79
2022/07/21 05:50:23;;;;;;;27.38;17.50;;;19.50;99.90;;;;;;6126323;23;20014;-79
2022/07/21 05:52:49;;;;;;;27.92;17.92;;;19.10;99.90;;;;;;6099837;23;20085;-78
2022/07/21 05:55:15;;;;;;;30.48;18.08;;;19.10;99.90;;;;;;6099414;23;20454;-78
2022/07/21 05:57:40;;;;;;;29.50;18.45;;;19.10;99.90;;;;;;6126427;23;20446;-79
2022/07/21 06:00:07;;;;;;;26.38;17.20;;;19.00;99.90;;;;;;6098999;23;20018;-80
2022/07/21 06:02:33;;;;;;;26.55;17.30;;;19.00;99.90;;;;;;6098713;23;20017;-80
2022/07/21 06:04:58;;;;;;;28.27;18.05;;;18.90;99.90;;;;;;6125884;23;20022;-81
2022/07/21 06:07:24;;;;;;;28.25;18.90;;;19.00;99.90;;;;;;6100305;23;20089;-80
2022/07/21 06:09:50;;;;;;;30.98;18.90;;;18.80;99.90;;;;;;6125848;23;20093;-80
2022/07/21 06:12:15;;;;;;;25.15;17.48;;;18.90;99.90;;;;;;6100070;23;20386;-80
2022/07/21 06:14:41;;;;;;;29.75;19.02;;;18.80;99.90;;;;;;6099866;23;20239;-82
2022/07/21 06:17:07;;;;;;;31.20;19.20;;;18.90;99.90;;;;;;6098153;23;20053;-82
2022/07/21 06:19:32;;;;;;;28.15;18.75;;;19.10;99.90;;;;;;6099625;23;20101;-79
2022/07/21 06:21:59;;;;;;;29.27;19.88;;;18.70;99.90;;;;;;6099307;23;20020;-80
2022/07/21 06:24:26;;;;;;;30.08;19.75;;;18.70;99.90;;;;;;6098213;23;20053;-80
2022/07/21 06:26:52;;;;;;;33.47;19.60;;;18.70;99.90;;;;;;6125565;23;20014;-80
2022/07/21 06:29:18;;;;;;;30.30;18.98;;;18.70;99.90;;;;;;6126013;23;20054;-79
2022/07/21 06:31:44;;;;;;;30.38;19.20;;;19.20;99.90;;;;;;6098186;23;20029;-79
2022/07/21 06:34:09;;;;;;;28.13;18.45;;;18.90;99.90;;;;;;6099593;23;20020;-80
2022/07/21 06:36:35;;;;;;;29.88;18.33;;;19.00;99.90;;;;;;6099237;23;20014;-79
2022/07/21 06:39:00;;;;;;;29.45;18.45;;;18.80;99.90;;;;;;6119488;23;20125;-79
2022/07/21 06:41:26;;;;;;;32.58;20.45;;;18.90;99.90;;;;;;6154977;23;20082;-80
2022/07/21 06:43:52;;;;;;;30.48;19.40;;;18.80;99.90;;;;;;6128173;23;20025;-79
2022/07/21 06:46:19;;;;;;;29.23;19.98;;;19.00;99.90;;;;;;6127021;23;20037;-80
2022/07/21 06:48:45;;;;;;;30.60;19.92;;;19.10;99.90;;;;;;6153488;23;20028;-79
2022/07/21 06:51:11;;;;;;;30.05;19.98;;;19.10;99.90;;;;;;6153867;23;20009;-80
2022/07/21 06:53:37;;;;;;;29.20;19.45;;;19.00;99.90;;;;;;6155018;23;20068;-79
2022/07/21 06:56:02;;;;;;;29.10;19.33;;;19.10;99.90;;;;;;6128104;23;20450;-79
2022/07/21 06:58:28;;;;;;;30.23;20.10;;;19.20;99.90;;;;;;6153677;23;20014;-81
2022/07/21 07:00:54;;;;;;;32.78;20.13;;;19.30;99.90;;;;;;6154079;23;20014;-80
2022/07/21 07:03:20;;;;;;;30.15;19.13;;;19.30;99.90;;;;;;6155275;23;20017;-80
2022/07/21 07:05:47;;;;;;;30.55;19.70;;;19.50;99.90;;;;;;6153949;23;20024;-80
2022/07/21 07:08:13;;;;;;;31.42;20.90;;;20.00;99.90;;;;;;6128775;23;20021;-79
2022/07/21 07:10:42;;;;;;;34.55;20.33;;;19.50;99.90;;;;;;6128973;23;20025;-80
2022/07/21 07:13:08;;;;;;;31.77;20.02;;;19.60;99.90;;;;;;6127763;23;20553;-80
2022/07/21 07:15:34;;;;;;;31.02;20.23;;;19.60;99.90;;;;;;6154500;23;20330;-80
2022/07/21 07:18:00;;;;;;;30.80;21.30;;;19.70;99.90;;;;;;6154231;23;20018;-80
2022/07/21 07:20:26;;;;;;;31.90;21.20;;;19.50;99.90;;;;;;6154185;23;20382;-80
2022/07/21 07:22:52;;;;;;;30.02;19.85;;;19.60;99.90;;;;;;6128754;23;20021;-80
2022/07/21 07:25:18;;;;;;;30.73;20.88;;;19.60;99.90;;;;;;6128688;23;20025;-80
2022/07/21 07:27:45;;;;;;;30.30;20.25;;;19.60;99.90;;;;;;6153821;23;20014;-80
2022/07/21 07:30:12;;;;;;;31.48;21.17;;;19.50;99.90;;;;;;6130283;23;20029;-80
2022/07/21 07:32:38;;;;;;;31.85;20.60;;;19.60;99.90;;;;;;6130626;23;20423;-80
2022/07/21 07:35:03;;;;;;;32.10;21.30;;;19.80;99.90;;;;;;6155869;23;20025;-80
2022/07/21 07:37:29;;;;;;;32.83;21.63;;;19.90;99.90;;;;;;6153043;23;20065;-84
2022/07/21 07:39:55;;;;;;;29.98;21.25;;;20.00;99.90;;;;;;6100919;23;20025;-81
2022/07/21 07:42:20;;;;;;;32.35;21.65;;;20.10;99.90;;;;;;6100365;23;20017;-81
2022/07/21 07:44:47;;;;;;;30.33;21.05;;;20.10;99.90;;;;;;6100728;23;20064;-81
2022/07/21 07:47:13;;;;;;;27.45;20.23;;;20.00;99.90;;;;;;6127195;23;20010;-80
2022/07/21 07:49:39;;;;;;;29.25;20.02;;;20.00;99.90;;;;;;6100178;23;20140;-80
2022/07/21 07:52:05;;;;;;;30.52;19.98;;;20.00;99.90;;;;;;6127602;23;20018;-81
2022/07/21 07:54:31;;;;;;;30.35;21.20;;;20.10;99.90;;;;;;6126745;23;20028;-81
2022/07/21 07:56:56;;;;;;;29.80;20.38;;;20.30;99.90;;;;;;6100727;23;20105;-80
2022/07/21 07:59:22;;;;;;;29.80;20.20;;;20.40;99.90;;;;;;6127432;23;20014;-81
2022/07/21 08:01:48;;;;;;;27.98;18.35;;;20.50;99.90;;;;;;6099673;23;20429;-81
2022/07/21 08:04:14;;;;;;;26.95;19.25;;;20.70;99.90;;;;;;6101139;23;20013;-81
2022/07/21 08:06:41;;;;;;;26.67;18.35;;;20.90;99.90;;;;;;6101012;23;20050;-84
2022/07/21 08:09:07;;;;;;;22.48;16.95;;;21.00;99.90;;;;;;6099785;23;20017;-82
2022/07/21 08:11:35;;;;;;;24.33;17.85;;;21.10;99.90;;;;;;6127171;23;20058;-82
2022/07/21 08:14:01;;;;;;;25.63;18.27;;;21.10;99.90;;;;;;6100277;23;20371;-81
2022/07/21 08:16:27;;;;;;;24.17;17.80;;;21.00;99.90;;;;;;6126182;23;20073;-83
2022/07/21 08:18:53;;;;;;;24.40;18.25;;;20.90;99.90;;;;;;6125351;23;20069;-82
2022/07/21 08:21:18;;;;;;;26.90;18.92;;;21.10;99.90;;;;;;6100736;23;20052;-82
2022/07/21 08:23:44;;;;;;;26.02;18.40;;;21.60;99.90;;;;;;6099712;23;20096;-81
2022/07/21 08:26:09;;;;;;;24.60;17.80;;;21.80;99.90;;;;;;6100972;23;20045;-85
2022/07/21 08:28:35;;;;;;;23.98;17.70;;;21.50;99.90;;;;;;6100938;23;20022;-86
2022/07/21 08:31:01;;;;;;;26.02;18.25;;;21.30;99.90;;;;;;6099749;23;20030;-86
2022/07/21 08:33:26;;;;;;;26.00;17.80;;;21.20;99.90;;;;;;6127301;23;20096;-86
2022/07/21 08:35:53;;;;;;;26.75;18.25;;;21.00;99.90;;;;;;6099975;23;20069;-85
2022/07/21 08:38:20;;;;;;;27.73;19.02;;;21.20;99.90;;;;;;6110128;23;20018;-85
2022/07/21 08:40:46;;;;;;;26.85;18.58;;;20.90;99.90;;;;;;6129279;23;20021;-84
2022/07/21 08:43:13;;;;;;;26.42;18.88;;;20.80;99.90;;;;;;6156493;23;20026;-86
2022/07/21 08:45:39;;;;;;;24.60;17.58;;;20.80;99.90;;;;;;6129062;23;20350;-85
2022/07/21 08:48:06;;;;;;;24.10;17.55;;;20.80;99.90;;;;;;6156064;23;20021;-85
2022/07/21 08:50:35;;;;;;;23.67;17.40;;;21.10;99.90;;;;;;6130404;23;20024;-84
2022/07/21 08:53:01;;;;;;;22.95;16.38;;;21.30;99.90;;;;;;6128952;23;20021;-85
2022/07/21 08:55:32;;;;;;;21.17;15.43;;;21.40;99.90;;;;;;6130174;23;20140;-84
2022/07/21 08:57:57;;;;;;;21.30;15.43;;;21.30;99.90;;;;;;6128363;23;20461;-84
2022/07/21 09:00:23;;;;;;;19.80;14.13;;;21.40;99.90;;;;;;6129464;23;20029;-85
2022/07/21 09:02:49;;;;;;;21.48;15.38;;;21.40;99.90;;;;;;6129210;23;20124;-86
2022/07/21 09:05:14;;;;;;;21.27;15.45;;;21.70;99.90;;;;;;6129198;23;20006;-86
2022/07/21 09:07:57;;;;;;;20.38;14.77;;;21.80;99.90;;;;;;6129717;23;20092;-87
2022/07/21 09:10:26;;;;;;;19.73;14.38;;;22.00;99.90;;;;;;6162700;23;20014;-88
2022/07/21 09:12:55;;;;;;;21.63;15.52;;;22.10;99.90;;;;;;6128436;23;20025;-88
2022/07/21 09:15:29;;;;;;;21.48;14.20;;;22.10;99.90;;;;;;6128332;23;20072;-87
2022/07/21 09:18:07;;;;;;;20.42;14.38;;;22.40;99.90;;;;;;6129394;23;20021;-88
2022/07/21 09:20:33;;;;;;;20.27;15.23;;;22.20;99.90;;;;;;6129193;23;20068;-87
2022/07/21 09:23:10;;;;;;;22.08;15.38;;;22.60;99.90;;;;;;6155485;23;20005;-85
2022/07/21 09:25:41;;;;;;;22.42;16.17;;;23.00;99.90;;;;;;6150421;23;20020;-87
2022/07/21 09:28:13;;;;;;;20.48;14.70;;;23.20;99.90;;;;;;6138992;23;20021;-86
2022/07/21 09:30:54;;;;;;;20.90;15.63;;;23.20;99.90;;;;;;6132787;23;20013;-90
2022/07/21 09:33:40;;;;;;;22.13;15.77;;;22.90;99.90;;;;;;6134751;23;20323;-87
2022/07/21 09:36:25;;;;;;;21.60;14.35;;;22.70;99.90;;;;;;6153946;23;20018;-81
2022/07/21 09:39:07;;;;;;;22.02;15.55;;;23.10;99.90;;;;;;6125359;23;20025;-81
2022/07/21 09:41:33;;;;;;;21.30;14.93;;;23.20;99.90;;;;;;6127905;23;20018;-82
2022/07/21 09:43:58;;;;;;;23.30;15.60;;;23.80;99.90;;;;;;6153772;23;20020;-82
2022/07/21 09:46:29;;;;;;;22.40;16.40;;;23.20;99.90;;;;;;6125162;23;20024;-84
2022/07/21 09:48:57;;;;;;;20.13;15.65;;;23.10;99.90;;;;;;6153363;23;20041;-83
2022/07/21 09:51:32;;;;;;;20.98;15.50;;;23.10;99.90;;;;;;6154769;23;20346;-84
2022/07/21 09:54:03;;;;;;;22.58;15.77;;;23.00;99.90;;;;;;6155590;23;20020;-85
2022/07/21 09:56:41;;;;;;;21.00;15.07;;;22.90;99.90;;;;;;6129025;23;20100;-83
2022/07/21 09:59:10;;;;;;;23.00;16.45;;;22.70;99.90;;;;;;6128193;23;20331;-82
2022/07/21 10:01:37;;;;;;;23.70;16.60;;;23.00;99.90;;;;;;6127538;23;20013;-82
2022/07/21 10:04:04;;;;;;;22.77;15.98;;;22.50;99.90;;;;;;6128760;23;20017;-80
2022/07/21 10:06:33;;;;;;;23.90;17.05;;;22.60;99.90;;;;;;6129013;23;20014;-80
2022/07/21 10:09:01;;;;;;;26.35;19.70;;;22.30;99.90;;;;;;6127289;23;20080;-80
2022/07/21 10:11:27;;;;;;;26.77;19.35;;;21.90;99.90;;;;;;6154949;23;20382;-80
2022/07/21 10:13:54;;;;;;;27.17;19.33;;;22.10;99.90;;;;;;6154297;23;20017;-80
2022/07/21 10:16:19;;;;;;;27.92;19.60;;;21.90;99.90;;;;;;6154314;23;20013;-80
2022/07/21 10:18:54;;;;;;;27.42;20.00;;;21.70;99.90;;;;;;6155037;23;20464;-80
2022/07/21 10:21:41;;;;;;;28.80;20.75;;;21.70;99.90;;;;;;6165070;23;20024;-79
2022/07/21 10:24:10;;;;;;;32.35;22.10;;;21.50;99.90;;;;;;6136982;23;20013;-80
2022/07/21 10:26:36;;;;;;;31.15;22.27;;;21.40;99.90;;;;;;6155170;23;20346;-80
2022/07/21 10:29:02;;;;;;;31.85;22.17;;;21.30;99.90;;;;;;6154613;23;20075;-80
2022/07/21 10:31:27;;;;;;;35.97;22.67;;;21.30;99.90;;;;;;6154006;23;20048;-80
2022/07/21 10:34:02;;;;;;;32.65;22.33;;;21.30;99.90;;;;;;6154998;23;20014;-79
2022/07/21 10:36:28;;;;;;;33.10;21.45;;;21.40;99.90;;;;;;6152645;23;20029;-79
2022/07/21 10:39:08;;;;;;;33.47;22.23;;;21.50;99.90;;;;;;6139405;23;20026;-80
2022/07/21 10:41:49;;;;;;;32.60;23.17;;;21.60;99.90;;;;;;6125890;23;20026;-81
2022/07/21 10:44:27;;;;;;;31.48;22.42;;;21.80;99.90;;;;;;6124680;23;20379;-80
2022/07/21 10:47:06;;;;;;;31.58;21.02;;;21.90;99.90;;;;;;6125418;23;20028;-80
2022/07/21 10:49:49;;;;;;;29.67;21.67;;;22.00;99.90;;;;;;6126982;23;20024;-80
2022/07/21 10:52:41;;;;;;;30.50;21.95;;;22.20;99.90;;;;;;6099094;23;20022;-80
2022/07/21 10:55:10;;;;;;;30.17;21.92;;;22.50;99.90;;;;;;6100606;23;20447;-79
2022/07/21 10:57:42;;;;;;;31.02;21.65;;;22.70;99.90;;;;;;6099699;23;20097;-80
2022/07/21 11:00:18;;;;;;;29.77;20.35;;;23.20;99.90;;;;;;6126757;23;20457;-81
2022/07/21 11:02:46;;;;;;;27.95;19.38;;;23.30;99.90;;;;;;6126225;23;20084;-80
2022/07/21 11:05:12;;;;;;;27.80;20.00;;;23.50;99.90;;;;;;6127364;23;20026;-80
2022/07/21 11:08:10;;;;;;;29.45;20.23;;;23.80;99.90;;;;;;6102034;23;20010;-80
2022/07/21 11:10:52;;;;;;;25.40;18.30;;;24.00;99.90;;;;;;6101875;23;20012;-78
2022/07/21 11:13:19;;;;;;;27.23;19.00;;;24.30;99.90;;;;;;6127023;23;20025;-79
2022/07/21 11:15:53;;;;;;;27.45;19.77;;;24.10;99.90;;;;;;6101021;23;20040;-79
2022/07/21 11:18:20;;;;;;;25.33;18.92;;;24.00;99.90;;;;;;6102460;23;20018;-79
2022/07/21 11:21:16;;;;;;;27.38;20.70;;;24.00;99.90;;;;;;6128871;23;20442;-78
2022/07/21 11:23:49;;;;;;;27.13;20.08;;;23.50;99.90;;;;;;6103819;23;20017;-78
2022/07/21 11:26:24;;;;;;;26.90;20.98;;;23.50;99.90;;;;;;6103512;23;20077;-78
2022/07/21 11:29:06;;;;;;;27.88;20.45;;;23.60;99.90;;;;;;6104837;23;20517;-79
2022/07/21 11:31:46;;;;;;;28.70;21.03;;;23.90;99.90;;;;;;6103761;23;20018;-79
2022/07/21 11:34:12;;;;;;;30.15;20.40;;;24.10;99.90;;;;;;6129137;23;20316;-79
2022/07/21 11:36:38;;;;;;;26.42;20.42;;;24.20;99.90;;;;;;6103034;23;20061;-79
2022/07/21 11:39:12;;;;;;;26.35;20.00;;;24.40;99.90;;;;;;6128765;23;20017;-78
2022/07/21 11:41:40;;;;;;;27.30;21.23;;;24.20;99.90;;;;;;6102588;23;20018;-80
2022/07/21 11:44:08;;;;;;;27.30;19.83;;;24.10;99.90;;;;;;6103115;23;20018;-83
2022/07/21 11:46:50;;;;;;;24.15;19.10;;;24.20;99.90;;;;;;6102792;23;20010;-82
2022/07/21 11:49:18;;;;;;;22.58;16.88;;;24.20;99.90;;;;;;6130235;23;20089;-81
2022/07/21 11:52:12;;;;;;;26.60;16.88;;;24.20;99.90;;;;;;6103814;23;20010;-81
2022/07/21 11:54:38;;;;;;;24.17;16.15;;;23.80;99.90;;;;;;6102846;23;20026;-82
2022/07/21 11:57:07;;;;;;;22.42;17.67;;;23.30;99.90;;;;;;6129273;23;20014;-82
2022/07/21 11:59:35;;;;;;;22.42;17.27;;;23.20;99.90;;;;;;6104075;23;20387;-81
2022/07/21 12:02:05;;;;;;;24.55;17.77;;;23.00;99.90;;;;;;6102293;23;20020;-81
2022/07/21 12:04:37;;;;;;;21.83;17.73;;;22.90;99.90;;;;;;6130229;23;20040;-81
2022/07/21 12:07:19;;;;;;;24.27;18.02;;;22.90;99.90;;;;;;6103831;23;20020;-81
2022/07/21 12:09:47;;;;;;;24.80;17.67;;;22.60;99.90;;;;;;6102929;23;20018;-81
2022/07/21 12:12:13;;;;;;;24.10;17.45;;;22.60;99.90;;;;;;6138223;23;20042;-81
2022/07/21 12:14:49;;;;;;;22.67;16.88;;;22.80;99.90;;;;;;6126632;23;20014;-81
2022/07/21 12:17:36;;;;;;;23.30;16.63;;;22.60;99.90;;;;;;6100746;23;20020;-81
2022/07/21 12:20:05;;;;;;;24.77;16.45;;;22.70;99.90;;;;;;6126827;23;20021;-82
2022/07/21 12:22:37;;;;;;;23.88;16.48;;;23.20;99.90;;;;;;6125940;23;20443;-82
2022/07/21 12:25:07;;;;;;;24.80;16.85;;;23.30;99.90;;;;;;6101197;23;20029;-82
2022/07/21 12:27:38;;;;;;;21.50;15.10;;;23.50;99.90;;;;;;6100723;23;20018;-82
2022/07/21 12:30:05;;;;;;;20.40;13.70;;;23.50;99.90;;;;;;6125631;23;20018;-82
2022/07/21 12:32:40;;;;;;;21.02;13.73;;;23.60;99.90;;;;;;6100700;23;20084;-82
2022/07/21 12:35:06;;;;;;;20.23;13.60;;;23.70;99.90;;;;;;6108786;23;20029;-79